Time;durP1;ratioP1;P1;durP2;ratioP2;P2;SDS_P1;SDS_P2;PMS_P1;PMS_P2;Temp;Humidity;BMP_temperature;BMP_pressure;BME280_temperature;BME280_humidity;BME280_pressure;Samples;Min_cycle;Max_cycle;Signal;HPM_P1;HPM_P2
2022/05/07 00:04:11;;;;;;;54.40;50.40;;;;;;;14.30;100.00;102451.36;1985370;71;39570;-72
2022/05/07 00:09:55;;;;;;;54.07;50.00;;;;;;;14.35;100.00;102436.02;1887480;74;85436;-75
2022/05/07 00:22:00;;;;;;;50.30;46.67;;;;;;;14.20;100.00;102427.56;1840941;76;86416;-73
2022/05/07 00:27:43;;;;;;;51.77;47.90;;;;;;;14.17;100.00;102428.08;1869742;75;86306;-76
2022/05/07 00:33:32;;;;;;;55.47;51.67;;;;;;;14.14;100.00;102428.92;1914860;72;86458;-73
2022/05/07 00:39:18;;;;;;;54.50;50.80;;;;;;;14.16;100.00;102434.25;1980524;71;39568;-73
2022/05/07 00:45:04;;;;;;;54.93;51.33;;;;;;;14.27;100.00;102439.33;1821794;76;86387;-77
2022/05/07 00:56:50;;;;;;;52.07;48.40;;;;;;;14.25;100.00;102418.62;1824113;77;85428;-75
2022/05/07 01:02:35;;;;;;;55.77;51.77;;;;;;;14.26;100.00;102424.50;1802724;77;86539;-81
2022/05/07 01:08:19;;;;;;;56.93;52.63;;;;;;;14.36;100.00;102423.76;1940460;71;39464;-75
2022/05/07 01:14:04;;;;;;;56.20;52.13;;;;;;;14.37;100.00;102422.09;1839621;76;86383;-81
2022/05/07 01:19:47;;;;;;;55.73;51.73;;;;;;;14.26;100.00;102406.34;1876268;74;86359;-75
2022/05/07 01:25:32;;;;;;;54.83;51.03;;;;;;;14.32;100.00;102408.06;1853005;76;85434;-72
2022/05/07 01:31:18;;;;;;;53.57;49.77;;;;;;;14.28;100.00;102404.13;1936473;71;39434;-72
2022/05/07 01:37:01;;;;;;;55.37;51.27;;;;;;;14.28;100.00;102397.14;1842384;76;86489;-72
2022/05/07 01:42:45;;;;;;;52.00;48.30;;;;;;;14.23;100.00;102408.84;1882380;73;86253;-75
2022/05/07 01:48:31;;;;;;;53.43;49.63;;;;;;;14.22;100.00;102393.17;1810044;77;86103;-75
2022/05/07 01:54:15;;;;;;;52.90;49.10;;;;;;;14.15;100.00;102394.84;1951021;71;39756;-75
2022/05/07 01:59:58;;;;;;;57.30;53.07;;;;;;;14.19;100.00;102388.14;1841952;76;85725;-72
2022/05/07 02:05:42;;;;;;;55.47;51.63;;;;;;;14.25;100.00;102387.88;1820815;78;85392;-76
2022/05/07 02:11:26;;;;;;;58.47;54.47;;;;;;;14.06;100.00;102386.68;1945377;72;86481;-72
2022/05/07 02:17:11;;;;;;;55.23;51.43;;;;;;;14.11;100.00;102386.71;1934458;71;39784;-75
2022/05/07 02:22:57;;;;;;;56.07;52.27;;;;;;;14.04;100.00;102388.89;1877494;74;86610;-83
2022/05/07 02:28:41;;;;;;;56.60;52.80;;;;;;;14.12;100.00;102392.56;1872013;75;86553;-72
2022/05/07 02:34:24;;;;;;;57.87;53.97;;;;;;;14.00;100.00;102393.34;1940392;72;86295;-77
2022/05/07 02:40:11;;;;;;;53.63;49.73;;;;;;;14.11;100.00;102390.34;1978792;71;39538;-77
2022/05/07 02:45:56;;;;;;;54.37;50.57;;;;;;;14.03;100.00;102392.82;1876498;74;86209;-75
2022/05/07 02:51:40;;;;;;;57.13;53.13;;;;;;;14.07;100.00;102392.56;1880412;75;86240;-73
2022/05/07 02:57:24;;;;;;;53.93;50.03;;;;;;;14.03;100.00;102394.22;1926878;73;86291;-73
2022/05/07 03:03:07;;;;;;;56.07;51.97;;;;;;;14.10;100.00;102392.85;1810840;78;86164;-78
2022/05/07 03:08:52;;;;;;;58.80;54.70;;;;;;;14.10;100.00;102388.66;1795393;79;86534;-77
2022/05/07 03:14:37;;;;;;;56.43;52.40;;;;;;;14.04;100.00;102397.27;1804565;77;86710;-72
2022/05/07 03:20:21;;;;;;;55.50;51.63;;;;;;;14.08;100.00;102395.06;1820014;78;86496;-76
2022/05/07 03:26:05;;;;;;;52.53;48.70;;;;;;;13.97;100.00;102395.28;1836121;75;86342;-75
2022/05/07 03:31:49;;;;;;;56.57;52.43;;;;;;;14.05;100.00;102392.82;1850213;76;85858;-77
2022/05/07 03:37:36;;;;;;;55.30;51.40;;;;;;;14.11;100.00;102402.08;1804622;77;86389;-74
2022/05/07 03:43:22;;;;;;;53.70;49.87;;;;;;;14.05;100.00;102410.14;1860254;76;86262;-76
2022/05/07 03:49:09;;;;;;;55.17;50.97;;;;;;;14.13;100.00;102415.21;1803322;78;86187;-81
2022/05/07 03:54:53;;;;;;;54.37;50.27;;;;;;;14.09;100.00;102414.07;1877302;74;86080;-77
2022/05/07 04:00:36;;;;;;;51.87;47.77;;;;;;;14.18;100.00;102404.61;1860520;74;86630;-72
2022/05/07 04:06:20;;;;;;;53.90;50.00;;;;;;;14.04;100.00;102416.28;1920962;71;39599;-87
2022/05/07 04:12:06;;;;;;;56.03;51.73;;;;;;;14.07;100.00;102416.31;1829846;76;85252;-89
2022/05/07 04:17:50;;;;;;;58.67;54.17;;;;;;;14.15;100.00;102410.20;1798930;78;86101;-76
2022/05/07 04:23:35;;;;;;;56.43;52.23;;;;;;;14.10;100.00;102408.22;1876433;75;86346;-74
2022/05/07 04:29:20;;;;;;;56.57;52.27;;;;;;;14.15;100.00;102407.41;1953591;71;39472;-73
2022/05/07 04:35:08;;;;;;;54.87;50.77;;;;;;;14.08;100.00;102410.98;1845433;76;86735;-71
2022/05/07 04:40:51;;;;;;;58.57;53.90;;;;;;;14.11;100.00;102417.45;1809478;78;86158;-74
2022/05/07 04:46:35;;;;;;;59.23;54.93;;;;;;;14.09;100.00;102419.11;1857648;76;85306;-72
2022/05/07 04:52:20;;;;;;;60.60;56.20;;;;;;;14.14;100.00;102425.28;1978593;71;39604;-74
2022/05/07 04:58:03;;;;;;;62.10;57.60;;;;;;;14.13;100.00;102423.59;1851016;76;86185;-73
2022/05/07 05:03:47;;;;;;;60.47;55.77;;;;;;;14.14;100.00;102429.48;1893612;74;86461;-71
2022/05/07 05:09:31;;;;;;;58.57;54.23;;;;;;;14.22;100.00;102440.69;1858147;76;86293;-74
2022/05/07 05:15:12;;;;;;;63.17;58.70;;;;;;;14.27;100.00;102441.57;1978107;71;39515;-71
2022/05/07 05:20:57;;;;;;;62.97;58.47;;;;;;;14.19;100.00;102443.48;1841728;75;85658;-72
2022/05/07 05:26:42;;;;;;;60.73;56.33;;;;;;;14.14;100.00;102445.69;1878398;75;86457;-71
2022/05/07 05:32:25;;;;;;;61.67;57.17;;;;;;;14.16;100.00;102447.38;1928443;73;85960;-75
2022/05/07 05:38:10;;;;;;;61.57;56.97;;;;;;;14.19;100.00;102459.41;1945998;71;39384;-75
2022/05/07 05:44:02;;;;;;;62.00;57.40;;;;;;;14.01;100.00;102468.52;1846509;76;86316;-74
2022/05/07 05:49:46;;;;;;;56.73;52.33;;;;;;;14.10;100.00;102471.10;1869981;75;86497;-72
2022/05/07 05:55:31;;;;;;;65.20;60.50;;;;;;;14.21;100.00;102480.38;1885439;75;85495;-77
2022/05/07 06:01:14;;;;;;;68.13;63.20;;;;;;;14.42;100.00;102489.75;1985315;71;39495;-74
2022/05/07 06:07:01;;;;;;;67.70;62.90;;;;;;;14.57;100.00;102492.64;1840724;76;86755;-78
2022/05/07 06:12:45;;;;;;;67.27;62.37;;;;;;;14.61;100.00;102488.74;1855720;76;86304;-75
2022/05/07 06:18:29;;;;;;;65.50;60.80;;;;;;;14.66;100.00;102499.95;1919073;73;86323;-73
2022/05/07 06:30:16;;;;;;;69.10;64.17;;;;;;;14.77;100.00;102490.48;1978949;71;39695;-73
2022/05/07 06:36:02;;;;;;;74.87;69.90;;;;;;;14.88;100.00;102500.06;1849065;76;86271;-72
2022/05/07 06:41:46;;;;;;;74.73;69.33;;;;;;;15.12;100.00;102504.61;1870862;75;86180;-73
2022/05/07 06:47:31;;;;;;;74.90;70.20;;;;;;;15.18;100.00;102503.52;1860095;76;85323;-77
2022/05/07 06:53:15;;;;;;;71.50;66.90;;;;;;;15.13;100.00;102511.90;1976336;71;39668;-76
2022/05/07 06:58:59;;;;;;;72.53;68.00;;;;;;;14.98;100.00;102514.08;1980405;70;86192;-75
2022/05/07 07:04:57;;;;;;;74.53;69.90;;;;;;;15.03;100.00;102509.05;1887829;74;85868;-76
2022/05/07 07:10:41;;;;;;;77.40;72.47;;;;;;;15.15;100.00;102509.65;1875569;74;86502;-75
2022/05/07 07:16:28;;;;;;;76.20;70.80;;;;;;;16.06;100.00;102510.33;1913831;74;85266;-75
2022/05/07 07:22:13;;;;;;;73.80;68.53;;;;;;;16.39;100.00;102508.30;1982430;71;39587;-79
2022/05/07 07:28:16;;;;;;;74.40;69.60;;;;;;;16.68;100.00;102509.96;1831264;76;86417;-77
2022/05/07 07:34:01;;;;;;;77.67;72.67;;;;;;;16.67;100.00;102510.52;1814580;76;86254;-73
2022/05/07 07:39:45;;;;;;;74.90;70.00;;;;;;;16.03;100.00;102513.16;1884815;74;86140;-72
2022/05/07 07:51:31;;;;;;;67.50;63.30;;;;;;;16.45;100.00;102521.21;1806625;77;86525;-74
2022/05/07 07:57:17;;;;;;;66.27;62.07;;;;;;;16.56;100.00;102520.64;1917520;72;39634;-72
2022/05/07 08:03:03;;;;;;;65.23;61.20;;;;;;;16.74;100.00;102522.83;1951381;72;86406;-73
2022/05/07 08:14:50;;;;;;;65.83;61.83;;;;;;;16.82;100.00;102520.83;1809182;78;86150;-75
2022/05/07 08:20:34;;;;;;;66.20;62.00;;;;;;;16.90;100.00;102521.64;1806654;77;86190;-89
2022/05/07 08:26:19;;;;;;;66.93;62.83;;;;;;;17.13;100.00;102521.54;1985324;71;39639;-75
2022/05/07 08:32:03;;;;;;;65.27;61.03;;;;;;;16.78;100.00;102528.99;1821998;76;86337;-75
2022/05/07 08:37:48;;;;;;;69.03;64.73;;;;;;;16.52;100.00;102531.56;1893435;73;85456;-74
2022/05/07 08:43:36;;;;;;;66.80;62.40;;;;;;;15.97;100.00;102552.66;1801362;77;86669;-74
2022/05/07 08:49:25;;;;;;;64.13;59.93;;;;;;;15.88;100.00;102552.37;1829668;75;107243;-74
2022/05/07 08:55:12;;;;;;;63.27;58.93;;;;;;;16.09;100.00;102554.64;1982133;71;39622;-74
2022/05/07 09:00:56;;;;;;;62.10;57.80;;;;;;;16.24;100.00;102568.09;1832742;76;86464;-74
2022/05/07 09:06:40;;;;;;;63.60;59.13;;;;;;;16.18;100.00;102564.99;1891750;75;86493;-74
2022/05/07 09:12:29;;;;;;;61.03;56.83;;;;;;;16.23;100.00;102557.98;1920792;72;86321;-74
2022/05/07 09:18:20;;;;;;;65.27;60.77;;;;;;;16.52;100.00;102555.97;1983674;71;39495;-75
2022/05/07 09:24:15;;;;;;;74.20;69.53;;;;;;;16.53;100.00;102559.05;1950531;71;39718;-74
2022/05/07 09:30:04;;;;;;;62.10;58.27;;;;;;;17.64;100.00;102557.22;1836329;76;86616;-74
2022/05/07 09:35:54;;;;;;;63.23;59.43;;;;;;;16.39;100.00;102576.47;1808624;78;86653;-73
2022/05/07 09:41:43;;;;;;;64.20;60.20;;;;;;;16.20;100.00;102571.17;1883857;75;85775;-75
2022/05/07 09:47:29;;;;;;;66.93;62.43;;;;;;;16.16;100.00;102577.62;1920468;72;86459;-73
2022/05/07 09:59:18;;;;;;;69.67;65.10;;;;;;;15.87;100.00;102589.36;1979490;71;39610;-72
2022/05/07 10:05:38;;;;;;;69.57;64.80;;;;;;;16.03;100.00;102593.60;1987240;71;40381;-73
2022/05/07 10:08:41;;;;;;;67.82;63.15;;;;;;;16.04;100.00;102596.14;1900382;73;938749;-75
2022/05/07 10:14:30;;;;;;;74.23;69.23;;;;;;;16.51;100.00;102587.42;1928503;71;86177;-72
2022/05/07 10:20:18;;;;;;;68.93;63.73;;;;;;;16.60;100.00;102591.33;1987616;71;39647;-74
2022/05/07 10:26:10;;;;;;;75.83;70.57;;;;;;;16.99;100.00;102590.11;1959418;71;39809;-74
2022/05/07 10:32:04;;;;;;;69.13;64.17;;;;;;;17.03;100.00;102587.59;1900069;74;85425;-81
2022/05/07 10:37:53;;;;;;;74.63;69.43;;;;;;;17.17;100.00;102588.64;1796262;78;85159;-72
2022/05/07 10:43:40;;;;;;;76.73;71.60;;;;;;;17.16;100.00;102589.20;1813179;77;86725;-75
2022/05/07 10:49:25;;;;;;;69.83;64.93;;;;;;;17.41;100.00;102583.20;1914468;72;86193;-75
2022/05/07 10:55:16;;;;;;;70.83;66.33;;;;;;;17.52;100.00;102577.23;1986283;71;39484;-80
2022/05/07 11:01:00;;;;;;;69.73;65.23;;;;;;;17.71;100.00;102583.05;1827105;76;86259;-72
2022/05/07 11:06:51;;;;;;;68.60;64.30;;;;;;;18.04;100.00;102567.33;1882506;74;86330;-75
2022/05/07 11:12:45;;;;;;;76.33;71.63;;;;;;;18.12;100.00;102576.55;1876266;75;86084;-74
2022/05/07 11:18:40;;;;;;;69.47;65.37;;;;;;;18.00;100.00;102576.92;1871656;75;85597;-74
2022/05/07 11:24:25;;;;;;;69.67;65.67;;;;;;;18.04;100.00;102576.61;1940693;73;85438;-72
2022/05/07 11:30:12;;;;;;;68.50;64.60;;;;;;;18.14;100.00;102580.73;1927116;70;39494;-75
2022/05/07 11:36:06;;;;;;;69.10;65.30;;;;;;;17.78;100.00;102582.16;1848711;76;86500;-72
2022/05/07 11:41:57;;;;;;;67.20;63.53;;;;;;;17.77;100.00;102579.05;1876324;74;86540;-74
2022/05/07 11:47:53;;;;;;;65.90;62.00;;;;;;;18.01;100.00;102573.55;1878391;75;86491;-74
2022/05/07 11:53:39;;;;;;;63.10;59.50;;;;;;;18.16;100.00;102579.03;1884768;73;86343;-76
2022/05/07 11:59:22;;;;;;;64.70;61.07;;;;;;;18.27;100.00;102576.39;1935375;73;85953;-83
2022/05/07 12:05:09;;;;;;;59.60;56.20;;;;;;;18.29;100.00;102565.70;1987564;71;39627;-75
2022/05/07 12:10:57;;;;;;;61.17;57.53;;;;;;;18.64;100.00;102563.98;1841351;76;86297;-74
2022/05/07 12:34:59;;;;;;;60.33;56.77;;;;;;;19.08;100.00;102555.86;1840386;76;85125;-76
2022/05/07 12:40:49;;;;;;;56.83;53.63;;;;;;;18.94;100.00;102561.94;1802525;78;86574;-79
2022/05/07 12:46:33;;;;;;;61.40;57.83;;;;;;;18.86;100.00;102560.62;1810936;77;86530;-76
2022/05/07 12:52:34;;;;;;;63.93;60.23;;;;;;;18.70;100.00;102568.95;1877909;75;86722;-71
2022/05/07 12:58:17;;;;;;;66.67;62.77;;;;;;;18.61;100.00;102573.59;1951196;71;39547;-73
2022/05/07 13:04:02;;;;;;;60.83;57.33;;;;;;;18.85;100.00;102578.66;1835810;76;86036;-73
2022/05/07 13:09:45;;;;;;;60.33;57.00;;;;;;;19.04;100.00;102569.68;1883600;73;86653;-74
2022/05/07 13:15:29;;;;;;;72.62;68.72;;;;;;;19.16;100.00;102562.80;1894819;72;85300;-73
2022/05/07 13:21:14;;;;;;;59.60;56.40;;;;;;;19.20;100.00;102566.12;1979063;71;39709;-73
2022/05/07 13:26:58;;;;;;;54.37;51.47;;;;;;;19.24;100.00;102562.13;1848147;76;86265;-74
2022/05/07 13:32:43;;;;;;;58.20;55.03;;;;;;;19.55;100.00;102565.63;1814702;76;86494;-82
2022/05/07 13:38:29;;;;;;;58.93;55.63;;;;;;;19.78;100.00;102559.66;1939263;73;86303;-73
2022/05/07 13:44:15;;;;;;;58.23;53.87;;;;;;;19.82;100.00;102564.11;1978649;71;39558;-76
2022/05/07 13:50:01;;;;;;;56.97;53.87;;;;;;;19.70;100.00;102568.81;1828545;76;86155;-75
2022/05/07 13:55:45;;;;;;;55.70;52.67;;;;;;;19.52;100.00;102568.22;1885295;74;86221;-74
2022/05/07 14:01:29;;;;;;;53.23;50.40;;;;;;;19.53;100.00;102562.30;1934902;71;86087;-73
2022/05/07 14:07:15;;;;;;;53.27;50.23;;;;;;;19.61;100.00;102562.17;1978186;71;39528;-74
2022/05/07 14:12:59;;;;;;;55.37;52.37;;;;;;;19.59;100.00;102558.84;1973180;72;86329;-76
2022/05/07 14:18:43;;;;;;;52.53;49.60;;;;;;;19.55;100.00;102557.17;1870561;75;86575;-82
2022/05/07 14:24:29;;;;;;;59.57;56.27;;;;;;;19.11;100.00;102559.47;1911064;73;86330;-74
2022/05/07 14:30:14;;;;;;;59.30;55.60;;;;;;;19.09;100.00;102550.47;1987034;71;39653;-76
2022/05/07 14:36:00;;;;;;;52.23;49.40;;;;;;;19.15;100.00;102546.45;1973508;71;86361;-75
2022/05/07 14:41:44;;;;;;;56.07;53.07;;;;;;;19.07;100.00;102542.34;1872364;75;86274;-73
2022/05/07 14:47:32;;;;;;;50.83;47.97;;;;;;;19.02;100.00;102543.80;1868599;76;86021;-77
2022/05/07 14:53:16;;;;;;;49.40;46.80;;;;;;;19.20;100.00;102536.53;1981513;71;39681;-74
2022/05/07 14:58:59;;;;;;;44.30;41.97;;;;;;;19.61;100.00;102522.70;1981248;69;86338;-75
2022/05/07 15:04:44;;;;;;;37.50;35.60;;;;;;;19.66;100.00;102529.68;1895177;73;86602;-76
2022/05/07 15:10:39;;;;;;;33.13;31.20;;;;;;;19.62;100.00;102523.55;1911400;73;86562;-74
2022/05/07 15:16:27;;;;;;;31.13;29.43;;;;;;;19.92;100.00;102515.44;1916677;72;85935;-87
2022/05/07 15:22:13;;;;;;;28.97;27.37;;;;;;;20.18;100.00;102509.34;1976750;71;39447;-73
2022/05/07 15:27:58;;;;;;;25.00;23.60;;;;;;;20.22;100.00;102504.75;1826631;76;86789;-79
2022/05/07 15:39:44;;;;;;;26.30;24.87;;;;;;;20.35;100.00;102503.97;1884108;73;85511;-72
2022/05/07 15:45:29;;;;;;;24.80;23.40;;;;;;;20.59;100.00;102500.95;1912728;74;84759;-73
2022/05/07 15:51:15;;;;;;;23.80;22.50;;;;;;;20.42;100.00;102495.92;1978162;71;40221;-74
2022/05/07 15:57:05;;;;;;;18.07;17.23;;;;;;;20.40;100.00;102494.00;1794094;77;86031;-73
2022/05/07 16:02:45;;;;;;;16.80;16.00;;;;;;;20.02;100.00;102505.13;1914201;73;86268;-73
2022/05/07 16:08:29;;;;;;;15.90;15.20;;;;;;;19.75;100.00;102503.03;1933224;73;86547;-82
2022/05/07 16:14:15;;;;;;;17.80;17.00;;;;;;;19.59;100.00;102505.27;1987681;71;39531;-78
2022/05/07 16:19:59;;;;;;;15.73;15.13;;;;;;;19.77;100.00;102501.57;1945887;72;86626;-76
2022/05/07 16:25:54;;;;;;;15.17;14.57;;;;;;;20.04;100.00;102502.81;1899103;73;86549;-75
2022/05/07 16:31:41;;;;;;;19.97;19.03;;;;;;;20.33;100.00;102516.12;1886541;74;86212;-79
2022/05/07 16:37:25;;;;;;;28.57;27.13;;;;;;;20.02;100.00;102522.89;1903157;73;85649;-73
2022/05/07 16:43:09;;;;;;;29.37;27.93;;;;;;;19.57;100.00;102527.28;1925800;71;39502;-76
2022/05/07 16:48:55;;;;;;;28.83;27.43;;;;;;;19.23;100.00;102522.39;1896333;74;85850;-88
2022/05/07 16:54:43;;;;;;;31.77;30.17;;;;;;;19.34;100.00;102529.58;1903911;73;86333;-78
2022/05/07 17:00:27;;;;;;;30.00;28.60;;;;;;;19.23;100.00;102528.03;1915146;74;86179;-84
2022/05/07 17:06:12;;;;;;;30.10;28.60;;;;;;;19.10;100.00;102530.45;1985097;71;39624;-75
2022/05/07 17:11:57;;;;;;;32.37;30.67;;;;;;;18.96;100.00;102530.07;1848273;76;86243;-75
2022/05/07 17:17:41;;;;;;;34.13;32.33;;;;;;;18.96;100.00;102530.91;1881946;75;86794;-71
2022/05/07 17:23:28;;;;;;;32.77;31.17;;;;;;;18.60;100.00;102520.67;1928218;73;86493;-72
2022/05/07 17:29:12;;;;;;;35.37;33.47;;;;;;;18.77;100.00;102544.13;1986770;71;39575;-73
2022/05/07 17:34:56;;;;;;;37.07;35.27;;;;;;;18.59;100.00;102540.66;1854850;76;86058;-71
2022/05/07 17:40:40;;;;;;;36.47;34.70;;;;;;;18.48;100.00;102554.55;1880547;75;85316;-70
2022/05/07 17:46:24;;;;;;;38.10;36.30;;;;;;;18.33;100.00;102558.91;1910596;74;86401;-70
2022/05/07 17:52:10;;;;;;;40.17;38.17;;;;;;;18.23;100.00;102564.66;1975511;71;39642;-70
2022/05/07 17:57:53;;;;;;;41.50;39.40;;;;;;;18.15;100.00;102568.91;1891548;74;86404;-74
2022/05/07 18:03:37;;;;;;;42.63;40.53;;;;;;;18.14;100.00;102582.13;1859784;74;86576;-69
2022/05/07 18:09:22;;;;;;;42.20;40.10;;;;;;;18.04;100.00;102582.23;1982335;72;86687;-76
2022/05/07 18:15:14;;;;;;;47.63;45.17;;;;;;;17.93;100.00;102589.05;1803090;78;86508;-76
2022/05/07 18:20:57;;;;;;;50.07;47.47;;;;;;;17.95;100.00;102597.21;1849098;76;86027;-70
2022/05/07 18:26:40;;;;;;;51.63;48.93;;;;;;;17.74;100.00;102595.95;1872428;75;86600;-67
2022/05/07 18:32:26;;;;;;;53.60;50.90;;;;;;;17.68;100.00;102599.07;1906562;72;86423;-69
2022/05/07 18:44:13;;;;;;;50.90;48.40;;;;;;;17.54;100.00;102603.05;1982564;71;39444;-68
2022/05/07 18:49:57;;;;;;;52.60;50.03;;;;;;;17.43;100.00;102607.06;1844127;76;86451;-71
2022/05/07 19:01:40;;;;;;;56.90;54.20;;;;;;;17.17;100.00;102623.74;1866278;75;86135;-70
2022/05/07 19:07:23;;;;;;;61.93;58.97;;;;;;;16.92;100.00;102635.91;1915219;72;86360;-73
2022/05/07 19:13:08;;;;;;;62.77;59.77;;;;;;;16.80;100.00;102639.02;1891257;74;86094;-73
2022/05/07 19:18:54;;;;;;;63.70;60.70;;;;;;;16.80;100.00;102639.58;1882878;74;85307;-67
2022/05/07 19:24:38;;;;;;;67.50;64.17;;;;;;;16.49;100.00;102644.35;1852910;76;86083;-69
2022/05/07 19:30:25;;;;;;;68.47;65.17;;;;;;;16.46;100.00;102651.09;1919663;74;86295;-67
2022/05/07 19:36:10;;;;;;;70.20;66.70;;;;;;;16.49;100.00;102654.73;1929063;70;39550;-67
2022/05/07 19:41:56;;;;;;;71.17;67.67;;;;;;;16.46;100.00;102652.50;1876016;74;86053;-68
2022/05/07 19:47:39;;;;;;;71.47;67.87;;;;;;;16.41;100.00;102663.16;1849059;76;86745;-73
2022/05/07 19:53:25;;;;;;;69.43;65.83;;;;;;;16.32;100.00;102676.89;1926246;72;86440;-73
2022/05/07 19:59:07;;;;;;;67.43;63.93;;;;;;;16.26;100.00;102684.16;1893819;74;86512;-68
2022/05/07 20:04:52;;;;;;;67.33;63.87;;;;;;;16.36;100.00;102697.66;1801701;78;86467;-71
2022/05/07 20:10:38;;;;;;;71.57;67.87;;;;;;;16.18;100.00;102700.14;1807368;77;86532;-67
2022/05/07 20:16:23;;;;;;;71.90;68.10;;;;;;;16.17;100.00;102715.31;1923718;73;86325;-68
2022/05/07 20:22:10;;;;;;;68.80;65.40;;;;;;;16.18;100.00;102716.41;1804875;78;86101;-68
2022/05/07 20:27:56;;;;;;;69.87;66.37;;;;;;;16.30;100.00;102712.78;1883736;75;85387;-71
2022/05/07 20:33:41;;;;;;;70.17;66.67;;;;;;;16.11;100.00;102718.65;1887874;74;86798;-68
2022/05/07 20:39:26;;;;;;;65.40;62.10;;;;;;;15.99;100.00;102718.63;1913474;72;85437;-67
2022/05/07 20:51:28;;;;;;;71.23;67.40;;;;;;;15.57;100.00;102743.97;1912131;72;85378;-70
2022/05/07 20:57:15;;;;;;;75.00;71.07;;;;;;;15.24;100.00;102765.58;1989477;69;39351;-66
2022/05/07 21:03:00;;;;;;;73.30;69.40;;;;;;;15.23;100.00;102763.06;1950751;72;86275;-68
2022/05/07 21:08:44;;;;;;;69.83;66.13;;;;;;;15.07;100.00;102765.45;1905154;73;86448;-68
2022/05/07 21:14:31;;;;;;;72.17;68.37;;;;;;;15.04;100.00;102767.69;1851421;76;85997;-67
2022/05/07 21:20:18;;;;;;;70.50;66.87;;;;;;;15.07;100.00;102772.45;1974017;71;39626;-66
2022/05/07 21:32:09;;;;;;;70.53;66.67;;;;;;;14.76;100.00;102772.78;1810823;78;86360;-68
2022/05/07 21:37:54;;;;;;;71.67;67.77;;;;;;;14.76;100.00;102775.59;1887079;74;86818;-70
2022/05/07 21:43:38;;;;;;;73.93;69.73;;;;;;;14.53;100.00;102776.77;1866489;75;86716;-67
2022/05/07 21:49:23;;;;;;;71.20;67.23;;;;;;;14.62;100.00;102786.36;1861567;75;86355;-66
2022/05/07 21:55:08;;;;;;;75.27;71.17;;;;;;;14.70;100.00;102795.66;1802204;78;86185;-68
2022/05/07 22:00:54;;;;;;;74.73;70.63;;;;;;;14.66;100.00;102794.52;1800868;78;86702;-67
2022/05/07 22:06:42;;;;;;;75.43;71.20;;;;;;;14.64;100.00;102800.06;1879625;75;86847;-68
2022/05/07 22:12:27;;;;;;;73.73;69.63;;;;;;;14.70;100.00;102804.06;1912453;74;86703;-70
2022/05/07 22:18:13;;;;;;;74.73;70.50;;;;;;;14.76;100.00;102804.96;1981176;71;39883;-68
2022/05/07 22:23:58;;;;;;;75.90;71.70;;;;;;;14.70;100.00;102808.81;1819526;77;85700;-70
2022/05/07 22:29:42;;;;;;;75.07;70.77;;;;;;;14.65;100.00;102816.59;1879175;75;86366;-73
2022/05/07 22:35:25;;;;;;;75.97;71.57;;;;;;;14.63;100.00;102815.18;1912152;74;86518;-68
2022/05/07 22:37:57;;;;;;;78.07;73.67;;;;;;;14.54;100.00;102829.65;1837629;75;936916;-67
2022/05/07 22:43:40;;;;;;;82.60;77.70;;;;;;;14.64;100.00;102822.44;1878648;75;86476;-68
2022/05/07 22:49:24;;;;;;;79.67;74.87;;;;;;;14.67;100.00;102833.13;1930713;73;86520;-70
2022/05/07 22:55:10;;;;;;;83.33;78.33;;;;;;;14.46;100.00;102839.87;1890915;74;85950;-71
2022/05/07 23:00:54;;;;;;;82.67;77.70;;;;;;;14.46;100.00;102845.47;1888428;74;85577;-71
2022/05/07 23:06:39;;;;;;;84.77;79.57;;;;;;;14.47;100.00;102844.92;1901724;74;86373;-67
2022/05/07 23:12:24;;;;;;;84.90;79.70;;;;;;;14.37;100.00;102851.27;1909752;72;86079;-70
2022/05/07 23:18:10;;;;;;;84.07;78.97;;;;;;;14.28;100.00;102854.75;1987218;71;39761;-68
2022/05/07 23:23:55;;;;;;;83.47;78.27;;;;;;;14.16;100.00;102853.50;1886558;74;86611;-68
2022/05/07 23:29:42;;;;;;;88.77;83.27;;;;;;;14.21;100.00;102856.87;1885552;75;86314;-67
2022/05/07 23:35:26;;;;;;;88.43;82.93;;;;;;;14.19;100.00;102858.56;1909008;74;86679;-67
2022/05/07 23:41:12;;;;;;;87.93;82.23;;;;;;;14.27;100.00;102854.45;1988088;71;39609;-69
2022/05/07 23:46:59;;;;;;;86.03;80.57;;;;;;;14.12;100.00;102861.53;1835758;76;86641;-69
2022/05/07 23:52:42;;;;;;;84.00;78.90;;;;;;;14.07;100.00;102860.09;1954585;73;86582;-67
2022/05/07 23:58:25;;;;;;;82.53;77.63;;;;;;;14.05;100.00;102861.44;1917180;72;86348;-68
